Aviation Digital Data Service (ADDS)

Output produced by METARs form (1427 UTC 27 March 2017)
found at http://aviationweather.gov/adds/metars/
 
KRDU 271120Z 2712/2812 23007KT P6SM BKN060 
     FM271400 21010KT P6SM SCT025 BKN040 
     TEMPO 2714/2716 BKN018 
     FM280000 20007KT P6SM OVC250 
     FM280600 22009KT P6SM OVC015 
     FM280900 22007KT 4SM -RA BR OVC003